sensor_id;sensor_type;location;lat;lon;timestamp;pressure;altitude;pressure_sealevel;temperature;humidity
27685;BME280;46113;50.130;8.526;2022-12-17T05:16:23;100863.78;;;-12.79;68.93
27685;BME280;46113;50.130;8.526;2022-12-17T05:19:08;100862.25;;;-12.77;68.63
27685;BME280;46113;50.130;8.526;2022-12-17T05:21:53;100868.09;;;-12.78;68.78
27685;BME280;46113;50.130;8.526;2022-12-17T05:24:38;100877.34;;;-12.80;68.80
27685;BME280;46113;50.130;8.526;2022-12-17T05:27:24;100872.03;;;-12.83;69.12
27685;BME280;46113;50.130;8.526;2022-12-17T05:30:09;100869.78;;;-12.78;68.71
27685;BME280;46113;50.130;8.526;2022-12-17T05:33:19;100880.00;;;-12.78;68.72
27685;BME280;46113;50.130;8.526;2022-12-17T05:36:05;100887.63;;;-12.78;68.43
27685;BME280;46113;50.130;8.526;2022-12-17T05:38:50;100892.53;;;-12.81;68.40
27685;BME280;46113;50.130;8.526;2022-12-17T05:41:37;100895.59;;;-12.87;68.53
27685;BME280;46113;50.130;8.526;2022-12-17T05:44:22;100895.88;;;-12.96;68.49
27685;BME280;46113;50.130;8.526;2022-12-17T05:47:16;100905.19;;;-12.97;69.28
27685;BME280;46113;50.130;8.526;2022-12-17T05:50:01;100906.06;;;-12.96;68.96
27685;BME280;46113;50.130;8.526;2022-12-17T05:52:46;100906.28;;;-12.93;69.34
27685;BME280;46113;50.130;8.526;2022-12-17T05:55:32;100905.38;;;-12.93;69.15
27685;BME280;46113;50.130;8.526;2022-12-17T05:58:17;100909.50;;;-12.95;68.89
27685;BME280;46113;50.130;8.526;2022-12-17T06:01:04;100912.94;;;-12.95;68.90
27685;BME280;46113;50.130;8.526;2022-12-17T06:03:49;100913.81;;;-12.94;68.71
27685;BME280;46113;50.130;8.526;2022-12-17T06:06:35;100917.38;;;-12.92;68.91
27685;BME280;46113;50.130;8.526;2022-12-17T06:09:20;100922.63;;;-12.89;68.74
27685;BME280;46113;50.130;8.526;2022-12-17T06:12:05;100929.91;;;-12.82;69.01
27685;BME280;46113;50.130;8.526;2022-12-17T06:14:51;100937.25;;;-12.87;67.94
27685;BME280;46113;50.130;8.526;2022-12-17T06:17:36;100941.16;;;-12.92;67.47
27685;BME280;46113;50.130;8.526;2022-12-17T06:20:21;100945.28;;;-12.94;67.67
27685;BME280;46113;50.130;8.526;2022-12-17T06:23:10;100948.44;;;-12.98;68.61
27685;BME280;46113;50.130;8.526;2022-12-17T06:25:55;100948.44;;;-12.98;67.95
27685;BME280;46113;50.130;8.526;2022-12-17T06:28:41;100956.88;;;-12.99;68.03
27685;BME280;46113;50.130;8.526;2022-12-17T06:31:27;100956.88;;;-12.99;67.99
27685;BME280;46113;50.130;8.526;2022-12-17T06:34:12;100956.53;;;-13.04;69.19
27685;BME280;46113;50.130;8.526;2022-12-17T06:36:58;100958.03;;;-13.07;69.08
27685;BME280;46113;50.130;8.526;2022-12-17T06:39:43;100962.44;;;-13.05;69.24
27685;BME280;46113;50.130;8.526;2022-12-17T06:42:28;100965.97;;;-13.03;69.14
27685;BME280;46113;50.130;8.526;2022-12-17T06:45:15;100966.56;;;-12.93;69.53
27685;BME280;46113;50.130;8.526;2022-12-17T06:48:06;100972.06;;;-12.87;69.90
27685;BME280;46113;50.130;8.526;2022-12-17T06:50:55;100968.16;;;-12.82;71.03
27685;BME280;46113;50.130;8.526;2022-12-17T06:53:41;100966.59;;;-12.66;70.69
27685;BME280;46113;50.130;8.526;2022-12-17T06:56:29;100975.59;;;-12.58;70.35
27685;BME280;46113;50.130;8.526;2022-12-17T06:59:14;100980.81;;;-12.70;69.36
27685;BME280;46113;50.130;8.526;2022-12-17T07:01:59;100983.66;;;-12.65;69.54
27685;BME280;46113;50.130;8.526;2022-12-17T07:04:45;100986.69;;;-12.58;69.75
27685;BME280;46113;50.130;8.526;2022-12-17T07:07:33;100998.28;;;-12.49;70.38
27685;BME280;46113;50.130;8.526;2022-12-17T07:10:26;101008.56;;;-12.48;70.76
27685;BME280;46113;50.130;8.526;2022-12-17T07:13:13;101007.50;;;-12.38;70.79
27685;BME280;46113;50.130;8.526;2022-12-17T07:16:01;101018.19;;;-12.44;72.19
27685;BME280;46113;50.130;8.526;2022-12-17T07:19:14;101014.75;;;-12.31;71.60
27685;BME280;46113;50.130;8.526;2022-12-17T07:22:44;101029.09;;;-12.19;73.16
27685;BME280;46113;50.130;8.526;2022-12-17T07:26:21;101029.47;;;-12.13;74.21
27685;BME280;46113;50.130;8.526;2022-12-17T07:29:07;101038.91;;;-11.98;74.77
27685;BME280;46113;50.130;8.526;2022-12-17T07:31:53;101041.13;;;-11.89;75.09
27685;BME280;46113;50.130;8.526;2022-12-17T07:34:39;101042.41;;;-11.83;74.15
27685;BME280;46113;50.130;8.526;2022-12-17T07:37:27;101049.66;;;-11.75;74.99
27685;BME280;46113;50.130;8.526;2022-12-17T07:40:12;101055.44;;;-11.65;74.88
27685;BME280;46113;50.130;8.526;2022-12-17T07:42:59;101065.31;;;-11.56;74.33
27685;BME280;46113;50.130;8.526;2022-12-17T07:45:44;101059.53;;;-11.67;75.32
27685;BME280;46113;50.130;8.526;2022-12-17T07:48:30;101063.56;;;-11.57;75.73
27685;BME280;46113;50.130;8.526;2022-12-17T07:51:17;101071.25;;;-11.42;75.53
27685;BME280;46113;50.130;8.526;2022-12-17T07:54:03;101072.53;;;-11.35;74.55
27685;BME280;46113;50.130;8.526;2022-12-17T08:01:58;101086.09;;;-11.36;75.68
27685;BME280;46113;50.130;8.526;2022-12-17T08:04:46;101086.84;;;-11.23;75.23
27685;BME280;46113;50.130;8.526;2022-12-17T08:07:32;101087.03;;;-11.20;75.39
27685;BME280;46113;50.130;8.526;2022-12-17T08:10:26;101093.81;;;-11.21;75.29
27685;BME280;46113;50.130;8.526;2022-12-17T08:13:11;101087.13;;;-11.19;75.52
27685;BME280;46113;50.130;8.526;2022-12-17T08:16:00;101096.84;;;-11.13;75.61
27685;BME280;46113;50.130;8.526;2022-12-17T08:18:46;101107.88;;;-10.99;75.51
27685;BME280;46113;50.130;8.526;2022-12-17T08:21:35;101110.88;;;-10.91;74.86
27685;BME280;46113;50.130;8.526;2022-12-17T08:24:27;101112.94;;;-10.71;74.38
27685;BME280;46113;50.130;8.526;2022-12-17T08:27:18;101117.16;;;-10.86;74.53
27685;BME280;46113;50.130;8.526;2022-12-17T08:30:10;101124.84;;;-10.71;74.15
27685;BME280;46113;50.130;8.526;2022-12-17T08:33:01;101115.16;;;-10.77;74.04
27685;BME280;46113;50.130;8.526;2022-12-17T08:35:52;101123.44;;;-10.66;74.32
27685;BME280;46113;50.130;8.526;2022-12-17T08:38:38;101122.13;;;-10.59;73.92
27685;BME280;46113;50.130;8.526;2022-12-17T08:41:23;101121.00;;;-10.49;73.74
27685;BME280;46113;50.130;8.526;2022-12-17T08:44:12;101116.47;;;-10.38;73.73
27685;BME280;46113;50.130;8.526;2022-12-17T08:47:01;101121.34;;;-10.28;73.16
27685;BME280;46113;50.130;8.526;2022-12-17T08:49:46;101127.53;;;-10.24;73.43
27685;BME280;46113;50.130;8.526;2022-12-17T08:52:33;101131.56;;;-10.28;73.37
27685;BME280;46113;50.130;8.526;2022-12-17T08:55:21;101138.28;;;-10.15;72.90
27685;BME280;46113;50.130;8.526;2022-12-17T08:58:07;101131.59;;;-10.13;72.86
27685;BME280;46113;50.130;8.526;2022-12-17T09:00:57;101144.97;;;-10.02;72.67
27685;BME280;46113;50.130;8.526;2022-12-17T09:03:44;101148.34;;;-10.03;72.62
27685;BME280;46113;50.130;8.526;2022-12-17T09:06:30;101147.47;;;-10.19;72.77
27685;BME280;46113;50.130;8.526;2022-12-17T09:09:16;101156.94;;;-10.02;72.92
27685;BME280;46113;50.130;8.526;2022-12-17T09:12:02;101154.59;;;-9.98;73.22
27685;BME280;46113;50.130;8.526;2022-12-17T09:14:51;101148.88;;;-9.94;73.39
27685;BME280;46113;50.130;8.526;2022-12-17T09:17:37;101157.25;;;-9.96;73.41
27685;BME280;46113;50.130;8.526;2022-12-17T09:20:22;101154.78;;;-9.95;73.42
27685;BME280;46113;50.130;8.526;2022-12-17T09:23:07;101157.16;;;-9.83;73.26
27685;BME280;46113;50.130;8.526;2022-12-17T09:25:54;101158.69;;;-9.86;73.54
27685;BME280;46113;50.130;8.526;2022-12-17T09:28:40;101162.97;;;-9.70;72.97
27685;BME280;46113;50.130;8.526;2022-12-17T09:31:26;101165.09;;;-9.63;72.87
27685;BME280;46113;50.130;8.526;2022-12-17T09:34:11;101160.94;;;-9.44;72.11
27685;BME280;46113;50.130;8.526;2022-12-17T09:36:56;101163.06;;;-9.37;71.80
27685;BME280;46113;50.130;8.526;2022-12-17T09:39:42;101162.25;;;-9.36;71.90
27685;BME280;46113;50.130;8.526;2022-12-17T09:45:34;101170.66;;;-9.39;71.77
27685;BME280;46113;50.130;8.526;2022-12-17T09:48:23;101170.50;;;-9.42;71.45
27685;BME280;46113;50.130;8.526;2022-12-17T09:51:22;101166.72;;;-9.80;72.53
27685;BME280;46113;50.130;8.526;2022-12-17T09:54:24;101170.41;;;-9.75;73.06
27685;BME280;46113;50.130;8.526;2022-12-17T09:57:16;101173.78;;;-9.76;73.45
27685;BME280;46113;50.130;8.526;2022-12-17T10:00:12;101171.25;;;-9.59;73.48
27685;BME280;46113;50.130;8.526;2022-12-17T10:02:58;101167.28;;;-9.54;73.16
27685;BME280;46113;50.130;8.526;2022-12-17T10:05:44;101177.56;;;-9.38;72.95
27685;BME280;46113;50.130;8.526;2022-12-17T10:08:30;101171.31;;;-9.26;72.69
27685;BME280;46113;50.130;8.526;2022-12-17T10:11:23;101174.13;;;-9.38;72.94
27685;BME280;46113;50.130;8.526;2022-12-17T10:14:16;101172.03;;;-9.29;73.32
27685;BME280;46113;50.130;8.526;2022-12-17T10:17:03;101181.09;;;-9.35;73.09
27685;BME280;46113;50.130;8.526;2022-12-17T10:19:51;101179.44;;;-9.18;73.30
27685;BME280;46113;50.130;8.526;2022-12-17T10:22:46;101183.59;;;-9.37;73.64
27685;BME280;46113;50.130;8.526;2022-12-17T10:25:32;101183.50;;;-9.22;73.30
27685;BME280;46113;50.130;8.526;2022-12-17T10:28:20;101187.44;;;-9.29;73.87
27685;BME280;46113;50.130;8.526;2022-12-17T10:31:19;101197.34;;;-9.03;73.37
27685;BME280;46113;50.130;8.526;2022-12-17T10:34:06;101196.44;;;-9.20;73.40
27685;BME280;46113;50.130;8.526;2022-12-17T10:36:53;101195.59;;;-9.04;73.13
27685;BME280;46113;50.130;8.526;2022-12-17T10:39:40;101186.44;;;-8.99;73.10
27685;BME280;46113;50.130;8.526;2022-12-17T10:42:43;101181.16;;;-8.69;72.70
27685;BME280;46113;50.130;8.526;2022-12-17T10:45:32;101177.94;;;-8.81;72.59
27685;BME280;46113;50.130;8.526;2022-12-17T10:48:29;101188.06;;;-8.68;72.39
27685;BME280;46113;50.130;8.526;2022-12-17T10:51:31;101187.88;;;-8.71;72.50
27685;BME280;46113;50.130;8.526;2022-12-17T10:54:28;101183.50;;;-8.57;72.60
27685;BME280;46113;50.130;8.526;2022-12-17T10:57:37;101186.69;;;-8.78;72.47
27685;BME280;46113;50.130;8.526;2022-12-17T11:00:32;101189.81;;;-8.67;72.40
27685;BME280;46113;50.130;8.526;2022-12-17T11:03:30;101191.09;;;-8.59;72.52
27685;BME280;46113;50.130;8.526;2022-12-17T11:06:27;101190.53;;;-8.86;72.76
27685;BME280;46113;50.130;8.526;2022-12-17T11:09:20;101201.16;;;-9.12;72.93
27685;BME280;46113;50.130;8.526;2022-12-17T11:12:09;101207.72;;;-9.17;73.71
27685;BME280;46113;50.130;8.526;2022-12-17T11:15:03;101194.88;;;-8.85;73.52
27685;BME280;46113;50.130;8.526;2022-12-17T11:17:54;101200.16;;;-8.65;73.38
27685;BME280;46113;50.130;8.526;2022-12-17T11:20:48;101201.25;;;-8.43;72.79
27685;BME280;46113;50.130;8.526;2022-12-17T11:23:38;101207.44;;;-8.23;72.02
27685;BME280;46113;50.130;8.526;2022-12-17T11:26:31;101206.72;;;-8.37;71.81
27685;BME280;46113;50.130;8.526;2022-12-17T11:29:19;101196.69;;;-8.33;71.04
27685;BME280;46113;50.130;8.526;2022-12-17T11:32:19;101203.31;;;-8.54;71.20
27685;BME280;46113;50.130;8.526;2022-12-17T11:38:38;101209.63;;;-8.31;70.95
27685;BME280;46113;50.130;8.526;2022-12-17T11:51:17;101201.72;;;-7.99;70.38
27685;BME280;46113;50.130;8.526;2022-12-17T11:54:28;101202.50;;;-8.19;70.42
27685;BME280;46113;50.130;8.526;2022-12-17T11:57:26;101201.59;;;-8.02;70.38
27685;BME280;46113;50.130;8.526;2022-12-17T12:00:22;101211.06;;;-8.01;70.59
27685;BME280;46113;50.130;8.526;2022-12-17T12:06:22;101207.94;;;-7.77;70.55
27685;BME280;46113;50.130;8.526;2022-12-17T12:12:38;101224.50;;;-7.89;70.13
27685;BME280;46113;50.130;8.526;2022-12-17T12:18:49;101214.22;;;-7.89;69.69
27685;BME280;46113;50.130;8.526;2022-12-17T12:25:05;101219.41;;;-7.71;69.52
27685;BME280;46113;50.130;8.526;2022-12-17T12:34:08;101212.31;;;-8.11;71.09
27685;BME280;46113;50.130;8.526;2022-12-17T12:36:59;101212.34;;;-7.93;71.09
27685;BME280;46113;50.130;8.526;2022-12-17T12:40:31;101218.34;;;-7.93;71.29
27685;BME280;46113;50.130;8.526;2022-12-17T12:43:17;101216.41;;;-7.80;71.00
27685;BME280;46113;50.130;8.526;2022-12-17T12:46:15;101214.22;;;-7.89;70.75
27685;BME280;46113;50.130;8.526;2022-12-17T12:49:04;101209.72;;;-7.76;70.48
27685;BME280;46113;50.130;8.526;2022-12-17T12:51:54;101214.03;;;-7.57;70.12
27685;BME280;46113;50.130;8.526;2022-12-17T12:58:04;101212.81;;;-7.66;70.37
27685;BME280;46113;50.130;8.526;2022-12-17T13:00:55;101211.91;;;-7.66;70.44
27685;BME280;46113;50.130;8.526;2022-12-17T13:06:44;101225.44;;;-7.70;69.40
27685;BME280;46113;50.130;8.526;2022-12-17T13:11:49;101205.59;;;-7.73;70.20
27685;BME280;46113;50.130;8.526;2022-12-17T13:14:19;101200.28;;;-7.94;70.64
27685;BME280;46113;50.130;8.526;2022-12-17T13:16:55;101199.69;;;-7.88;70.17
27685;BME280;46113;50.130;8.526;2022-12-17T13:19:38;101194.44;;;-7.73;70.37
27685;BME280;46113;50.130;8.526;2022-12-17T13:24:51;101196.97;;;-7.92;70.47
27685;BME280;46113;50.130;8.526;2022-12-17T13:33:07;101206.03;;;-7.82;70.42
27685;BME280;46113;50.130;8.526;2022-12-17T13:35:48;101212.47;;;-7.90;70.19
27685;BME280;46113;50.130;8.526;2022-12-17T13:43:52;101217.72;;;-7.70;69.59
27685;BME280;46113;50.130;8.526;2022-12-17T13:46:21;101213.66;;;-7.65;69.68
27685;BME280;46113;50.130;8.526;2022-12-17T13:51:41;101222.47;;;-7.78;70.09
27685;BME280;46113;50.130;8.526;2022-12-17T13:54:15;101211.25;;;-7.80;70.42
27685;BME280;46113;50.130;8.526;2022-12-17T13:56:43;101206.69;;;-7.86;70.62
27685;BME280;46113;50.130;8.526;2022-12-17T13:59:18;101205.22;;;-7.81;70.50
27685;BME280;46113;50.130;8.526;2022-12-17T14:01:48;101212.13;;;-7.80;70.58
27685;BME280;46113;50.130;8.526;2022-12-17T14:04:26;101216.69;;;-7.74;70.30
27685;BME280;46113;50.130;8.526;2022-12-17T14:06:55;101210.59;;;-7.58;69.71
27685;BME280;46113;50.130;8.526;2022-12-17T14:09:31;101210.28;;;-7.64;69.67
27685;BME280;46113;50.130;8.526;2022-12-17T14:12:01;101211.72;;;-7.71;70.14
27685;BME280;46113;50.130;8.526;2022-12-17T14:14:51;101208.91;;;-7.75;69.89
27685;BME280;46113;50.130;8.526;2022-12-17T14:17:35;101211.66;;;-7.89;70.90
27685;BME280;46113;50.130;8.526;2022-12-17T14:20:14;101213.72;;;-8.00;71.03
27685;BME280;46113;50.130;8.526;2022-12-17T14:22:44;101216.56;;;-8.12;71.30
27685;BME280;46113;50.130;8.526;2022-12-17T14:25:27;101211.38;;;-7.95;71.07
27685;BME280;46113;50.130;8.526;2022-12-17T14:28:00;101211.72;;;-8.06;71.07
27685;BME280;46113;50.130;8.526;2022-12-17T14:30:40;101222.06;;;-8.04;71.14
27685;BME280;46113;50.130;8.526;2022-12-17T14:33:29;101223.31;;;-8.14;71.61
27685;BME280;46113;50.130;8.526;2022-12-17T14:35:57;101221.84;;;-8.09;71.44
27685;BME280;46113;50.130;8.526;2022-12-17T14:38:25;101220.16;;;-8.08;71.50
27685;BME280;46113;50.130;8.526;2022-12-17T14:41:11;101224.66;;;-8.04;71.43
27685;BME280;46113;50.130;8.526;2022-12-17T14:43:58;101219.66;;;-8.01;71.17
27685;BME280;46113;50.130;8.526;2022-12-17T14:46:26;101225.47;;;-8.05;70.50
27685;BME280;46113;50.130;8.526;2022-12-17T14:48:58;101222.97;;;-8.03;71.04
27685;BME280;46113;50.130;8.526;2022-12-17T14:51:40;101230.03;;;-8.16;71.20
27685;BME280;46113;50.130;8.526;2022-12-17T14:56:40;101240.09;;;-8.37;72.13
27685;BME280;46113;50.130;8.526;2022-12-17T15:02:23;101230.94;;;-8.15;71.89
27685;BME280;46113;50.130;8.526;2022-12-17T15:04:59;101240.50;;;-8.29;71.73
27685;BME280;46113;50.130;8.526;2022-12-17T15:07:27;101230.41;;;-8.43;71.90
27685;BME280;46113;50.130;8.526;2022-12-17T15:09:54;101230.16;;;-8.48;71.96
27685;BME280;46113;50.130;8.526;2022-12-17T15:12:24;101238.91;;;-8.61;72.35
27685;BME280;46113;50.130;8.526;2022-12-17T15:14:51;101245.34;;;-8.69;72.95
27685;BME280;46113;50.130;8.526;2022-12-17T15:17:17;101249.09;;;-8.46;72.39
27685;BME280;46113;50.130;8.526;2022-12-17T15:19:44;101249.97;;;-8.62;72.91
27685;BME280;46113;50.130;8.526;2022-12-17T15:22:16;101249.50;;;-8.71;73.03
27685;BME280;46113;50.130;8.526;2022-12-17T15:24:43;101257.59;;;-8.63;73.11
27685;BME280;46113;50.130;8.526;2022-12-17T15:27:14;101254.78;;;-8.51;72.57
27685;BME280;46113;50.130;8.526;2022-12-17T15:29:47;101255.38;;;-8.57;72.97
27685;BME280;46113;50.130;8.526;2022-12-17T15:32:17;101254.31;;;-8.77;72.61
27685;BME280;46113;50.130;8.526;2022-12-17T15:34:50;101255.53;;;-8.70;73.16
27685;BME280;46113;50.130;8.526;2022-12-17T15:37:20;101258.22;;;-8.84;73.06
27685;BME280;46113;50.130;8.526;2022-12-17T15:39:51;101264.34;;;-8.82;73.33
27685;BME280;46113;50.130;8.526;2022-12-17T15:42:17;101252.72;;;-8.59;72.88
27685;BME280;46113;50.130;8.526;2022-12-17T15:45:03;101263.31;;;-8.52;72.80
27685;BME280;46113;50.130;8.526;2022-12-17T15:47:29;101265.06;;;-8.51;72.36
27685;BME280;46113;50.130;8.526;2022-12-17T15:49:56;101262.41;;;-8.53;72.10
27685;BME280;46113;50.130;8.526;2022-12-17T15:52:22;101264.34;;;-8.65;72.24
27685;BME280;46113;50.130;8.526;2022-12-17T15:54:50;101268.66;;;-8.64;72.73
27685;BME280;46113;50.130;8.526;2022-12-17T15:57:20;101268.91;;;-8.76;72.09
27685;BME280;46113;50.130;8.526;2022-12-17T15:59:47;101265.88;;;-8.69;72.68
27685;BME280;46113;50.130;8.526;2022-12-17T16:02:13;101268.22;;;-8.57;72.39
27685;BME280;46113;50.130;8.526;2022-12-17T16:04:40;101270.75;;;-8.74;72.27
27685;BME280;46113;50.130;8.526;2022-12-17T16:07:07;101267.13;;;-8.61;71.99
27685;BME280;46113;50.130;8.526;2022-12-17T16:09:52;101276.28;;;-8.66;71.97
27685;BME280;46113;50.130;8.526;2022-12-17T16:12:18;101275.97;;;-8.72;72.04
27685;BME280;46113;50.130;8.526;2022-12-17T16:14:45;101278.50;;;-8.89;71.87
27685;BME280;46113;50.130;8.526;2022-12-17T16:17:11;101281.00;;;-8.90;72.49
27685;BME280;46113;50.130;8.526;2022-12-17T16:19:38;101286.84;;;-8.93;72.72
27685;BME280;46113;50.130;8.526;2022-12-17T16:22:05;101295.13;;;-9.14;72.96
27685;BME280;46113;50.130;8.526;2022-12-17T16:24:31;101304.31;;;-8.86;72.43
27685;BME280;46113;50.130;8.526;2022-12-17T16:26:58;101301.63;;;-8.89;72.34
27685;BME280;46113;50.130;8.526;2022-12-17T16:29:30;101293.19;;;-9.18;73.47
27685;BME280;46113;50.130;8.526;2022-12-17T16:31:58;101298.06;;;-9.22;73.41
27685;BME280;46113;50.130;8.526;2022-12-17T16:34:25;101303.75;;;-8.96;73.21
27685;BME280;46113;50.130;8.526;2022-12-17T16:36:51;101314.22;;;-9.08;72.92
27685;BME280;46113;50.130;8.526;2022-12-17T16:39:19;101308.03;;;-9.12;73.31
27685;BME280;46113;50.130;8.526;2022-12-17T16:41:45;101307.16;;;-9.13;73.50
27685;BME280;46113;50.130;8.526;2022-12-17T16:44:12;101306.28;;;-9.28;74.13
27685;BME280;46113;50.130;8.526;2022-12-17T16:46:40;101303.53;;;-9.16;74.55
27685;BME280;46113;50.130;8.526;2022-12-17T16:49:21;101307.16;;;-9.13;73.91
27685;BME280;46113;50.130;8.526;2022-12-17T16:51:49;101309.41;;;-9.02;74.01
27685;BME280;46113;50.130;8.526;2022-12-17T16:54:25;101306.75;;;-9.04;73.47
27685;BME280;46113;50.130;8.526;2022-12-17T16:56:54;101312.88;;;-9.02;73.76
27685;BME280;46113;50.130;8.526;2022-12-17T16:59:21;101308.09;;;-9.10;73.70
27685;BME280;46113;50.130;8.526;2022-12-17T17:01:50;101305.91;;;-9.19;73.82
27685;BME280;46113;50.130;8.526;2022-12-17T17:04:19;101307.25;;;-9.26;74.47
27685;BME280;46113;50.130;8.526;2022-12-17T17:06:48;101321.22;;;-9.21;74.00
27685;BME280;46113;50.130;8.526;2022-12-17T17:09:21;101318.91;;;-9.16;74.18
27685;BME280;46113;50.130;8.526;2022-12-17T17:11:48;101322.34;;;-9.16;74.28
27685;BME280;46113;50.130;8.526;2022-12-17T17:14:18;101318.00;;;-9.02;73.82
27685;BME280;46113;50.130;8.526;2022-12-17T17:16:45;101323.88;;;-9.04;73.75
27685;BME280;46113;50.130;8.526;2022-12-17T17:19:12;101322.88;;;-9.06;73.63
27685;BME280;46113;50.130;8.526;2022-12-17T17:21:48;101329.69;;;-9.07;73.45
27685;BME280;46113;50.130;8.526;2022-12-17T17:24:17;101322.59;;;-8.96;73.22
27685;BME280;46113;50.130;8.526;2022-12-17T17:26:49;101316.72;;;-8.93;73.54
27685;BME280;46113;50.130;8.526;2022-12-17T17:29:17;101319.81;;;-8.84;73.56
27685;BME280;46113;50.130;8.526;2022-12-17T17:31:44;101324.78;;;-8.87;73.15
27685;BME280;46113;50.130;8.526;2022-12-17T17:34:30;101328.41;;;-8.83;72.88
27685;BME280;46113;50.130;8.526;2022-12-17T17:36:57;101326.06;;;-8.79;72.92
27685;BME280;46113;50.130;8.526;2022-12-17T17:39:23;101333.97;;;-8.91;72.43
27685;BME280;46113;50.130;8.526;2022-12-17T17:41:50;101339.41;;;-9.01;72.74
27685;BME280;46113;50.130;8.526;2022-12-17T17:44:17;101319.34;;;-9.08;73.15
27685;BME280;46113;50.130;8.526;2022-12-17T17:46:43;101324.28;;;-9.12;73.07
27685;BME280;46113;50.130;8.526;2022-12-17T17:49:10;101328.84;;;-9.22;73.16
27685;BME280;46113;50.130;8.526;2022-12-17T17:51:40;101327.59;;;-9.29;72.92
27685;BME280;46113;50.130;8.526;2022-12-17T17:54:27;101333.59;;;-9.29;72.60
27685;BME280;46113;50.130;8.526;2022-12-17T17:56:54;101337.34;;;-9.39;73.41
27685;BME280;46113;50.130;8.526;2022-12-17T17:59:21;101344.50;;;-9.33;73.00
27685;BME280;46113;50.130;8.526;2022-12-17T18:01:58;101336.56;;;-9.53;73.79
27685;BME280;46113;50.130;8.526;2022-12-17T18:04:25;101345.56;;;-9.29;73.71
27685;BME280;46113;50.130;8.526;2022-12-17T18:06:52;101346.38;;;-9.30;73.10
27685;BME280;46113;50.130;8.526;2022-12-17T18:09:38;101350.50;;;-9.32;73.45
27685;BME280;46113;50.130;8.526;2022-12-17T18:12:05;101340.16;;;-9.19;73.08
27685;BME280;46113;50.130;8.526;2022-12-17T18:14:51;101348.22;;;-9.43;73.04
27685;BME280;46113;50.130;8.526;2022-12-17T18:17:45;101345.91;;;-9.23;72.69
27685;BME280;46113;50.130;8.526;2022-12-17T18:20:13;101347.25;;;-9.45;72.62
27685;BME280;46113;50.130;8.526;2022-12-17T18:22:44;101348.56;;;-9.52;72.67
27685;BME280;46113;50.130;8.526;2022-12-17T18:25:27;101352.66;;;-9.55;72.51
27685;BME280;46113;50.130;8.526;2022-12-17T18:28:02;101349.94;;;-9.72;73.00
27685;BME280;46113;50.130;8.526;2022-12-17T18:30:49;101347.84;;;-9.79;73.68
27685;BME280;46113;50.130;8.526;2022-12-17T18:33:38;101352.81;;;-9.52;73.36
27685;BME280;46113;50.130;8.526;2022-12-17T18:36:28;101350.84;;;-9.71;73.15
27685;BME280;46113;50.130;8.526;2022-12-17T18:39:11;101364.88;;;-9.80;73.73
27685;BME280;46113;50.130;8.526;2022-12-17T18:41:54;101363.22;;;-9.79;73.82
27685;BME280;46113;50.130;8.526;2022-12-17T18:44:43;101364.38;;;-9.74;73.83
27685;BME280;46113;50.130;8.526;2022-12-17T18:47:11;101364.91;;;-9.65;74.10
27685;BME280;46113;50.130;8.526;2022-12-17T18:49:39;101356.78;;;-9.72;74.02
27685;BME280;46113;50.130;8.526;2022-12-17T18:52:10;101363.22;;;-9.79;73.45
27685;BME280;46113;50.130;8.526;2022-12-17T18:54:45;101367.97;;;-9.85;73.60
27685;BME280;46113;50.130;8.526;2022-12-17T18:57:16;101368.78;;;-9.71;73.77
27685;BME280;46113;50.130;8.526;2022-12-17T18:59:43;101364.56;;;-9.71;73.20
27685;BME280;46113;50.130;8.526;2022-12-17T19:02:11;101373.31;;;-9.67;73.02
27685;BME280;46113;50.130;8.526;2022-12-17T19:04:42;101375.88;;;-9.52;73.07
27685;BME280;46113;50.130;8.526;2022-12-17T19:07:10;101381.50;;;-9.73;72.74
27685;BME280;46113;50.130;8.526;2022-12-17T19:09:42;101383.72;;;-9.79;73.13
27685;BME280;46113;50.130;8.526;2022-12-17T19:12:10;101387.06;;;-9.80;72.76
27685;BME280;46113;50.130;8.526;2022-12-17T19:14:44;101388.09;;;-9.92;72.91
27685;BME280;46113;50.130;8.526;2022-12-17T19:17:20;101382.13;;;-9.77;72.83
27685;BME280;46113;50.130;8.526;2022-12-17T19:19:49;101384.78;;;-9.75;72.90
27685;BME280;46113;50.130;8.526;2022-12-17T19:22:17;101393.16;;;-9.78;72.55
27685;BME280;46113;50.130;8.526;2022-12-17T19:24:45;101387.47;;;-9.87;72.70
27685;BME280;46113;50.130;8.526;2022-12-17T19:27:13;101383.31;;;-10.00;72.83
27685;BME280;46113;50.130;8.526;2022-12-17T19:29:44;101382.03;;;-10.07;72.54
27685;BME280;46113;50.130;8.526;2022-12-17T19:32:18;101385.69;;;-10.03;72.68
27685;BME280;46113;50.130;8.526;2022-12-17T19:34:45;101384.38;;;-9.97;72.77
27685;BME280;46113;50.130;8.526;2022-12-17T19:37:12;101385.47;;;-9.93;72.69
27685;BME280;46113;50.130;8.526;2022-12-17T19:39:39;101384.34;;;-10.12;72.65
27685;BME280;46113;50.130;8.526;2022-12-17T19:42:06;101393.75;;;-10.26;73.26
27685;BME280;46113;50.130;8.526;2022-12-17T19:44:53;101392.00;;;-10.40;73.96
27685;BME280;46113;50.130;8.526;2022-12-17T19:47:22;101387.41;;;-10.18;73.89
27685;BME280;46113;50.130;8.526;2022-12-17T19:49:50;101391.28;;;-9.96;73.48
27685;BME280;46113;50.130;8.526;2022-12-17T19:52:20;101391.28;;;-9.96;72.76
27685;BME280;46113;50.130;8.526;2022-12-17T19:54:47;101389.59;;;-9.95;72.85
27685;BME280;46113;50.130;8.526;2022-12-17T19:57:16;101388.53;;;-9.99;72.25
27685;BME280;46113;50.130;8.526;2022-12-17T19:59:46;101384.09;;;-10.01;72.44
27685;BME280;46113;50.130;8.526;2022-12-17T20:02:16;101385.72;;;-9.88;72.61
27685;BME280;46113;50.130;8.526;2022-12-17T20:04:44;101379.19;;;-9.98;72.42
27685;BME280;46113;50.130;8.526;2022-12-17T20:07:11;101386.75;;;-10.00;72.20
27685;BME280;46113;50.130;8.526;2022-12-17T20:09:39;101390.63;;;-10.07;71.95
27685;BME280;46113;50.130;8.526;2022-12-17T20:12:06;101389.13;;;-10.03;72.07
27685;BME280;46113;50.130;8.526;2022-12-17T20:14:36;101392.25;;;-9.94;71.66
27685;BME280;46113;50.130;8.526;2022-12-17T20:17:10;101388.63;;;-9.97;71.40
27685;BME280;46113;50.130;8.526;2022-12-17T20:20:00;101390.34;;;-10.11;71.97
27685;BME280;46113;50.130;8.526;2022-12-17T20:22:30;101392.81;;;-10.13;71.69
27685;BME280;46113;50.130;8.526;2022-12-17T20:25:08;101411.25;;;-10.19;72.05